sensor_id;sensor_type;location;lat;lon;timestamp;pressure;altitude;pressure_sealevel;temperature;humidity
60355;BME280;46198;51.464;-0.066;2023-03-25T00:00:17;99862.94;;;8.20;100.00
60355;BME280;46198;51.464;-0.066;2023-03-25T00:02:46;99868.03;;;8.28;100.00
60355;BME280;46198;51.464;-0.066;2023-03-25T00:05:18;99856.69;;;8.19;100.00
60355;BME280;46198;51.464;-0.066;2023-03-25T00:07:48;99861.19;;;8.26;100.00
60355;BME280;46198;51.464;-0.066;2023-03-25T00:10:19;99860.06;;;8.33;100.00
60355;BME280;46198;51.464;-0.066;2023-03-25T00:12:47;99872.38;;;8.29;100.00
60355;BME280;46198;51.464;-0.066;2023-03-25T00:15:15;99868.59;;;8.30;100.00
60355;BME280;46198;51.464;-0.066;2023-03-25T00:17:43;99867.41;;;8.26;100.00
60355;BME280;46198;51.464;-0.066;2023-03-25T00:20:12;99860.28;;;8.32;100.00
60355;BME280;46198;51.464;-0.066;2023-03-25T00:22:40;99868.16;;;8.33;100.00
60355;BME280;46198;51.464;-0.066;2023-03-25T00:25:12;99865.91;;;8.30;100.00
60355;BME280;46198;51.464;-0.066;2023-03-25T00:27:45;99869.81;;;8.34;100.00
60355;BME280;46198;51.464;-0.066;2023-03-25T00:30:15;99884.47;;;8.27;100.00
60355;BME280;46198;51.464;-0.066;2023-03-25T00:32:44;99862.31;;;8.36;100.00
60355;BME280;46198;51.464;-0.066;2023-03-25T00:35:16;99878.91;;;8.40;100.00
60355;BME280;46198;51.464;-0.066;2023-03-25T00:37:45;99876.84;;;8.35;100.00
60355;BME280;46198;51.464;-0.066;2023-03-25T00:40:13;99895.28;;;8.27;100.00
60355;BME280;46198;51.464;-0.066;2023-03-25T00:42:41;99891.44;;;8.34;100.00
60355;BME280;46198;51.464;-0.066;2023-03-25T00:45:18;99890.38;;;8.35;100.00
60355;BME280;46198;51.464;-0.066;2023-03-25T00:47:46;99890.25;;;8.30;100.00
60355;BME280;46198;51.464;-0.066;2023-03-25T00:50:14;99882.00;;;8.25;100.00
60355;BME280;46198;51.464;-0.066;2023-03-25T00:52:42;99885.75;;;8.24;100.00
60355;BME280;46198;51.464;-0.066;2023-03-25T00:55:10;99877.50;;;8.19;100.00
60355;BME280;46198;51.464;-0.066;2023-03-25T00:57:38;99875.25;;;8.16;100.00
60355;BME280;46198;51.464;-0.066;2023-03-25T01:00:09;99882.19;;;8.12;100.00
60355;BME280;46198;51.464;-0.066;2023-03-25T01:02:39;99882.03;;;8.07;100.00
60355;BME280;46198;51.464;-0.066;2023-03-25T01:05:10;99867.91;;;8.05;100.00
60355;BME280;46198;51.464;-0.066;2023-03-25T01:07:39;99881.88;;;8.02;100.00
60355;BME280;46198;51.464;-0.066;2023-03-25T01:10:09;99863.00;;;7.95;100.00
60355;BME280;46198;51.464;-0.066;2023-03-25T01:12:37;99867.84;;;7.93;100.00
60355;BME280;46198;51.464;-0.066;2023-03-25T01:15:08;99873.00;;;7.94;100.00
60355;BME280;46198;51.464;-0.066;2023-03-25T01:17:36;99884.72;;;7.88;100.00
60355;BME280;46198;51.464;-0.066;2023-03-25T01:20:07;99874.97;;;7.87;100.00
60355;BME280;46198;51.464;-0.066;2023-03-25T01:22:35;99889.06;;;7.89;100.00
60355;BME280;46198;51.464;-0.066;2023-03-25T01:25:04;99887.88;;;7.85;100.00
60355;BME280;46198;51.464;-0.066;2023-03-25T01:27:32;99870.59;;;7.86;100.00
60355;BME280;46198;51.464;-0.066;2023-03-25T01:30:00;99868.34;;;7.83;100.00
60355;BME280;46198;51.464;-0.066;2023-03-25T01:32:28;99876.31;;;7.78;100.00
60355;BME280;46198;51.464;-0.066;2023-03-25T01:34:56;99870.69;;;7.80;100.00
60355;BME280;46198;51.464;-0.066;2023-03-25T01:37:25;99869.44;;;7.82;100.00
60355;BME280;46198;51.464;-0.066;2023-03-25T01:39:55;99870.47;;;7.81;100.00
60355;BME280;46198;51.464;-0.066;2023-03-25T01:42:23;99868.88;;;7.73;100.00
60355;BME280;46198;51.464;-0.066;2023-03-25T01:45:13;99868.06;;;7.73;100.00
60355;BME280;46198;51.464;-0.066;2023-03-25T01:47:42;99880.53;;;7.74;100.00
60355;BME280;46198;51.464;-0.066;2023-03-25T01:50:11;99870.75;;;7.73;100.00
60355;BME280;46198;51.464;-0.066;2023-03-25T01:52:44;99870.53;;;7.74;100.00
60355;BME280;46198;51.464;-0.066;2023-03-25T01:55:14;99877.22;;;7.72;100.00
60355;BME280;46198;51.464;-0.066;2023-03-25T01:57:47;99875.59;;;7.71;100.00
60355;BME280;46198;51.464;-0.066;2023-03-25T02:00:16;99879.09;;;7.71;100.00
60355;BME280;46198;51.464;-0.066;2023-03-25T02:02:46;99871.81;;;7.72;100.00
60355;BME280;46198;51.464;-0.066;2023-03-25T02:05:18;99873.09;;;7.69;100.00
60355;BME280;46198;51.464;-0.066;2023-03-25T02:07:48;99877.69;;;7.69;100.00
60355;BME280;46198;51.464;-0.066;2023-03-25T02:10:18;99869.31;;;7.70;100.00
60355;BME280;46198;51.464;-0.066;2023-03-25T02:12:46;99875.59;;;7.71;100.00
60355;BME280;46198;51.464;-0.066;2023-03-25T02:15:16;99878.94;;;7.66;100.00
60355;BME280;46198;51.464;-0.066;2023-03-25T02:18:05;99871.22;;;7.70;100.00
60355;BME280;46198;51.464;-0.066;2023-03-25T02:24:01;99881.34;;;7.74;100.00
60355;BME280;46198;51.464;-0.066;2023-03-25T02:26:47;99873.09;;;7.69;100.00
60355;BME280;46198;51.464;-0.066;2023-03-25T02:29:31;99872.44;;;7.74;100.00
60355;BME280;46198;51.464;-0.066;2023-03-25T02:32:14;99862.28;;;7.69;100.00
60355;BME280;46198;51.464;-0.066;2023-03-25T02:35:10;99883.09;;;7.69;100.00
60355;BME280;46198;51.464;-0.066;2023-03-25T02:38:05;99890.22;;;7.63;100.00
60355;BME280;46198;51.464;-0.066;2023-03-25T02:40:44;99878.72;;;7.68;100.00
60355;BME280;46198;51.464;-0.066;2023-03-25T02:43:17;99879.56;;;7.68;100.00
60355;BME280;46198;51.464;-0.066;2023-03-25T02:45:50;99878.88;;;7.73;100.00
60355;BME280;46198;51.464;-0.066;2023-03-25T02:48:22;99886.16;;;7.72;100.00
60355;BME280;46198;51.464;-0.066;2023-03-25T02:50:55;99883.00;;;7.75;100.00
60355;BME280;46198;51.464;-0.066;2023-03-25T02:53:27;99894.63;;;7.76;100.00
60355;BME280;46198;51.464;-0.066;2023-03-25T02:56:01;99896.91;;;7.79;100.00
60355;BME280;46198;51.464;-0.066;2023-03-25T02:58:31;99889.97;;;7.83;100.00
60355;BME280;46198;51.464;-0.066;2023-03-25T03:01:00;99899.38;;;7.81;100.00
60355;BME280;46198;51.464;-0.066;2023-03-25T03:03:28;99895.59;;;7.82;100.00
60355;BME280;46198;51.464;-0.066;2023-03-25T03:06:00;99889.38;;;7.81;100.00
60355;BME280;46198;51.464;-0.066;2023-03-25T03:08:40;99893.44;;;7.90;100.00
60355;BME280;46198;51.464;-0.066;2023-03-25T03:11:39;99886.66;;;7.81;100.00
60355;BME280;46198;51.464;-0.066;2023-03-25T03:14:28;99888.34;;;7.82;100.00
60355;BME280;46198;51.464;-0.066;2023-03-25T03:17:03;99894.19;;;7.79;100.00
60355;BME280;46198;51.464;-0.066;2023-03-25T03:19:37;99887.72;;;7.80;100.00
60355;BME280;46198;51.464;-0.066;2023-03-25T03:22:16;99898.31;;;7.82;100.00
60355;BME280;46198;51.464;-0.066;2023-03-25T03:24:59;99904.72;;;7.87;100.00
60355;BME280;46198;51.464;-0.066;2023-03-25T03:27:30;99899.16;;;7.82;100.00
60355;BME280;46198;51.464;-0.066;2023-03-25T03:30:05;99900.44;;;7.80;100.00
60355;BME280;46198;51.464;-0.066;2023-03-25T03:32:40;99914.97;;;7.78;100.00
60355;BME280;46198;51.464;-0.066;2023-03-25T03:35:15;99920.81;;;7.75;100.00
60355;BME280;46198;51.464;-0.066;2023-03-25T03:37:48;99908.06;;;7.83;100.00
60355;BME280;46198;51.464;-0.066;2023-03-25T03:40:20;99909.81;;;7.77;100.00
60355;BME280;46198;51.464;-0.066;2023-03-25T03:42:53;99916.13;;;7.71;100.00
60355;BME280;46198;51.464;-0.066;2023-03-25T03:45:27;99915.06;;;7.72;100.00
60355;BME280;46198;51.464;-0.066;2023-03-25T03:47:59;99922.09;;;7.73;100.00
60355;BME280;46198;51.464;-0.066;2023-03-25T03:50:30;99914.00;;;7.73;100.00
60355;BME280;46198;51.464;-0.066;2023-03-25T03:53:04;99923.00;;;7.67;100.00
60355;BME280;46198;51.464;-0.066;2023-03-25T03:55:39;99911.06;;;7.74;100.00
60355;BME280;46198;51.464;-0.066;2023-03-25T03:58:11;99913.25;;;7.66;100.00
60355;BME280;46198;51.464;-0.066;2023-03-25T04:00:44;99907.41;;;7.69;100.00
60355;BME280;46198;51.464;-0.066;2023-03-25T04:03:18;99913.41;;;7.71;100.00
60355;BME280;46198;51.464;-0.066;2023-03-25T04:05:53;99925.84;;;7.72;100.00
60355;BME280;46198;51.464;-0.066;2023-03-25T04:08:28;99910.59;;;7.59;100.00
60355;BME280;46198;51.464;-0.066;2023-03-25T04:11:02;99924.25;;;7.64;100.00
60355;BME280;46198;51.464;-0.066;2023-03-25T04:13:37;99928.78;;;7.70;100.00
60355;BME280;46198;51.464;-0.066;2023-03-25T04:16:07;99928.63;;;7.65;100.00
60355;BME280;46198;51.464;-0.066;2023-03-25T04:18:35;99930.03;;;7.68;100.00
60355;BME280;46198;51.464;-0.066;2023-03-25T04:21:06;99943.19;;;7.64;100.00
60355;BME280;46198;51.464;-0.066;2023-03-25T04:23:35;99934.19;;;7.70;100.00
60355;BME280;46198;51.464;-0.066;2023-03-25T04:26:06;99937.84;;;7.76;100.00
60355;BME280;46198;51.464;-0.066;2023-03-25T04:28:34;99944.78;;;7.72;100.00
60355;BME280;46198;51.464;-0.066;2023-03-25T04:31:03;99954.84;;;7.83;100.00
60355;BME280;46198;51.464;-0.066;2023-03-25T04:33:33;99935.31;;;7.81;100.00
60355;BME280;46198;51.464;-0.066;2023-03-25T04:36:01;99946.13;;;7.81;100.00
60355;BME280;46198;51.464;-0.066;2023-03-25T04:38:29;99955.50;;;7.78;100.00
60355;BME280;46198;51.464;-0.066;2023-03-25T04:40:57;99945.75;;;7.77;100.00
60355;BME280;46198;51.464;-0.066;2023-03-25T04:43:27;99971.88;;;7.84;100.00
60355;BME280;46198;51.464;-0.066;2023-03-25T04:45:55;99961.91;;;7.84;100.00
60355;BME280;46198;51.464;-0.066;2023-03-25T04:48:26;99965.44;;;7.85;100.00
60355;BME280;46198;51.464;-0.066;2023-03-25T04:50:56;99967.75;;;7.81;100.00
60355;BME280;46198;51.464;-0.066;2023-03-25T04:53:24;99970.28;;;7.76;100.00
60355;BME280;46198;51.464;-0.066;2023-03-25T04:55:53;99975.66;;;7.83;100.00
60355;BME280;46198;51.464;-0.066;2023-03-25T04:58:21;99980.41;;;7.87;100.00
60355;BME280;46198;51.464;-0.066;2023-03-25T05:00:51;99977.97;;;7.79;100.00
60355;BME280;46198;51.464;-0.066;2023-03-25T05:03:19;99987.06;;;7.85;100.00
60355;BME280;46198;51.464;-0.066;2023-03-25T05:05:50;99982.69;;;7.84;100.00
60355;BME280;46198;51.464;-0.066;2023-03-25T05:08:19;99979.78;;;7.85;100.00
60355;BME280;46198;51.464;-0.066;2023-03-25T05:10:48;99975.56;;;7.89;100.00
60355;BME280;46198;51.464;-0.066;2023-03-25T05:13:17;99976.63;;;7.88;100.00
60355;BME280;46198;51.464;-0.066;2023-03-25T05:15:46;99980.53;;;7.92;100.00
60355;BME280;46198;51.464;-0.066;2023-03-25T05:18:16;99988.94;;;8.03;100.00
60355;BME280;46198;51.464;-0.066;2023-03-25T05:20:45;99980.22;;;8.00;100.00
60355;BME280;46198;51.464;-0.066;2023-03-25T05:23:17;99990.47;;;7.98;100.00
60355;BME280;46198;51.464;-0.066;2023-03-25T05:25:46;99987.91;;;8.04;100.00
60355;BME280;46198;51.464;-0.066;2023-03-25T05:28:16;99985.88;;;7.99;100.00
60355;BME280;46198;51.464;-0.066;2023-03-25T05:30:45;99992.94;;;8.00;100.00
60355;BME280;46198;51.464;-0.066;2023-03-25T05:33:17;99989.56;;;8.05;100.00
60355;BME280;46198;51.464;-0.066;2023-03-25T05:35:45;99997.84;;;8.10;100.00
60355;BME280;46198;51.464;-0.066;2023-03-25T05:38:14;100010.22;;;8.17;100.00
60355;BME280;46198;51.464;-0.066;2023-03-25T05:40:44;100010.22;;;8.17;100.00
60355;BME280;46198;51.464;-0.066;2023-03-25T05:43:13;100016.47;;;8.18;100.00
60355;BME280;46198;51.464;-0.066;2023-03-25T05:45:42;100003.91;;;8.24;100.00
60355;BME280;46198;51.464;-0.066;2023-03-25T05:48:10;100016.38;;;8.25;100.00
60355;BME280;46198;51.464;-0.066;2023-03-25T05:50:40;100015.09;;;8.27;100.00
60355;BME280;46198;51.464;-0.066;2023-03-25T05:53:10;100024.66;;;8.30;100.00
60355;BME280;46198;51.464;-0.066;2023-03-25T05:55:39;100022.75;;;8.30;100.00
60355;BME280;46198;51.464;-0.066;2023-03-25T05:58:07;100024.59;;;8.36;100.00
60355;BME280;46198;51.464;-0.066;2023-03-25T06:00:35;100038.69;;;8.38;100.00
60355;BME280;46198;51.464;-0.066;2023-03-25T06:03:05;100028.31;;;8.42;100.00
60355;BME280;46198;51.464;-0.066;2023-03-25T06:05:34;100033.72;;;8.42;100.00
60355;BME280;46198;51.464;-0.066;2023-03-25T06:08:03;100059.50;;;8.45;100.00
60355;BME280;46198;51.464;-0.066;2023-03-25T06:10:32;100053.03;;;8.46;100.00
60355;BME280;46198;51.464;-0.066;2023-03-25T06:13:00;100052.34;;;8.50;100.00
60355;BME280;46198;51.464;-0.066;2023-03-25T06:15:28;100054.44;;;8.48;100.00
60355;BME280;46198;51.464;-0.066;2023-03-25T06:17:59;100039.44;;;8.52;100.00
60355;BME280;46198;51.464;-0.066;2023-03-25T06:20:27;100051.28;;;8.51;100.00
60355;BME280;46198;51.464;-0.066;2023-03-25T06:22:56;100048.13;;;8.54;100.00
60355;BME280;46198;51.464;-0.066;2023-03-25T06:25:25;100051.22;;;8.58;100.00
60355;BME280;46198;51.464;-0.066;2023-03-25T06:27:54;100055.22;;;8.55;100.00
60355;BME280;46198;51.464;-0.066;2023-03-25T06:30:24;100059.34;;;8.58;100.00
60355;BME280;46198;51.464;-0.066;2023-03-25T06:32:52;100065.94;;;8.62;100.00
60355;BME280;46198;51.464;-0.066;2023-03-25T06:35:21;100063.25;;;8.62;100.00
60355;BME280;46198;51.464;-0.066;2023-03-25T06:37:49;100059.56;;;8.75;100.00
60355;BME280;46198;51.464;-0.066;2023-03-25T06:40:31;100057.16;;;8.67;100.00
60355;BME280;46198;51.464;-0.066;2023-03-25T06:43:27;100050.00;;;8.72;100.00
60355;BME280;46198;51.464;-0.066;2023-03-25T06:46:21;100044.97;;;8.76;100.00
60355;BME280;46198;51.464;-0.066;2023-03-25T06:49:08;100055.78;;;8.76;100.00
60355;BME280;46198;51.464;-0.066;2023-03-25T06:51:36;100052.25;;;8.75;100.00
60355;BME280;46198;51.464;-0.066;2023-03-25T06:54:04;100054.19;;;8.86;100.00
60355;BME280;46198;51.464;-0.066;2023-03-25T06:56:34;100061.97;;;8.83;100.00
60355;BME280;46198;51.464;-0.066;2023-03-25T06:59:28;100052.56;;;8.85;100.00
60355;BME280;46198;51.464;-0.066;2023-03-25T07:01:56;100058.59;;;8.87;100.00
60355;BME280;46198;51.464;-0.066;2023-03-25T07:04:24;100063.13;;;8.87;100.00
60355;BME280;46198;51.464;-0.066;2023-03-25T07:06:52;100073.75;;;8.88;100.00
60355;BME280;46198;51.464;-0.066;2023-03-25T07:09:23;100076.81;;;8.92;100.00
60355;BME280;46198;51.464;-0.066;2023-03-25T07:11:52;100068.03;;;8.97;100.00
60355;BME280;46198;51.464;-0.066;2023-03-25T07:14:20;100080.97;;;8.95;100.00
60355;BME280;46198;51.464;-0.066;2023-03-25T07:16:48;100065.47;;;9.02;100.00
60355;BME280;46198;51.464;-0.066;2023-03-25T07:19:16;100069.81;;;9.03;100.00
60355;BME280;46198;51.464;-0.066;2023-03-25T07:21:44;100089.69;;;8.97;100.00
60355;BME280;46198;51.464;-0.066;2023-03-25T07:24:12;100071.81;;;8.96;100.00
60355;BME280;46198;51.464;-0.066;2023-03-25T07:26:40;100085.34;;;8.96;100.00
60355;BME280;46198;51.464;-0.066;2023-03-25T07:29:11;100089.53;;;8.92;100.00
60355;BME280;46198;51.464;-0.066;2023-03-25T07:31:39;100076.81;;;8.92;100.00
60355;BME280;46198;51.464;-0.066;2023-03-25T07:34:07;100088.94;;;8.90;100.00
60355;BME280;46198;51.464;-0.066;2023-03-25T07:36:35;100085.19;;;8.91;100.00
60355;BME280;46198;51.464;-0.066;2023-03-25T07:39:03;100074.50;;;8.96;100.00
60355;BME280;46198;51.464;-0.066;2023-03-25T07:41:31;100090.81;;;8.89;100.00
60355;BME280;46198;51.464;-0.066;2023-03-25T07:44:09;100100.31;;;8.80;100.00
60355;BME280;46198;51.464;-0.066;2023-03-25T07:46:39;100099.09;;;8.76;100.00
60355;BME280;46198;51.464;-0.066;2023-03-25T07:49:07;100094.44;;;8.83;100.00
60355;BME280;46198;51.464;-0.066;2023-03-25T07:51:35;100113.41;;;8.83;100.00
60355;BME280;46198;51.464;-0.066;2023-03-25T07:54:03;100120.25;;;8.85;100.00
60355;BME280;46198;51.464;-0.066;2023-03-25T07:56:32;100111.00;;;8.93;100.00
60355;BME280;46198;51.464;-0.066;2023-03-25T07:59:00;100109.09;;;9.12;100.00
60355;BME280;46198;51.464;-0.066;2023-03-25T08:01:28;100140.22;;;9.21;100.00
60355;BME280;46198;51.464;-0.066;2023-03-25T08:03:58;100142.16;;;9.32;100.00
60355;BME280;46198;51.464;-0.066;2023-03-25T08:06:26;100138.50;;;9.39;100.00
60355;BME280;46198;51.464;-0.066;2023-03-25T08:08:54;100140.59;;;9.55;100.00
60355;BME280;46198;51.464;-0.066;2023-03-25T08:11:22;100130.94;;;9.59;100.00
60355;BME280;46198;51.464;-0.066;2023-03-25T08:13:50;100128.97;;;9.66;100.00
60355;BME280;46198;51.464;-0.066;2023-03-25T08:16:18;100131.94;;;9.76;100.00
60355;BME280;46198;51.464;-0.066;2023-03-25T08:18:46;100144.69;;;9.88;100.00
60355;BME280;46198;51.464;-0.066;2023-03-25T08:21:20;100150.50;;;9.91;100.00
60355;BME280;46198;51.464;-0.066;2023-03-25T08:23:51;100143.28;;;9.85;100.00
60355;BME280;46198;51.464;-0.066;2023-03-25T08:26:24;100161.88;;;9.82;100.00
60355;BME280;46198;51.464;-0.066;2023-03-25T08:28:52;100164.75;;;9.87;100.00
60355;BME280;46198;51.464;-0.066;2023-03-25T08:31:23;100171.94;;;9.93;100.00
60355;BME280;46198;51.464;-0.066;2023-03-25T08:33:52;100166.06;;;9.96;100.00
60355;BME280;46198;51.464;-0.066;2023-03-25T08:36:21;100170.31;;;9.92;100.00
60355;BME280;46198;51.464;-0.066;2023-03-25T08:38:50;100176.47;;;10.11;100.00
60355;BME280;46198;51.464;-0.066;2023-03-25T08:41:18;100187.06;;;10.01;100.00
60355;BME280;46198;51.464;-0.066;2023-03-25T08:43:46;100190.25;;;9.97;100.00
60355;BME280;46198;51.464;-0.066;2023-03-25T08:46:15;100182.72;;;10.11;100.00
60355;BME280;46198;51.464;-0.066;2023-03-25T08:48:43;100196.06;;;10.13;100.00
60355;BME280;46198;51.464;-0.066;2023-03-25T08:51:13;100198.88;;;10.06;100.00
60355;BME280;46198;51.464;-0.066;2023-03-25T08:53:42;100187.59;;;10.21;100.00
60355;BME280;46198;51.464;-0.066;2023-03-25T08:56:11;100215.47;;;10.28;100.00
60355;BME280;46198;51.464;-0.066;2023-03-25T08:58:39;100214.06;;;10.37;100.00
60355;BME280;46198;51.464;-0.066;2023-03-25T09:01:07;100213.84;;;10.51;100.00
60355;BME280;46198;51.464;-0.066;2023-03-25T09:03:35;100212.56;;;10.53;100.00
60355;BME280;46198;51.464;-0.066;2023-03-25T09:06:05;100227.31;;;10.69;100.00
60355;BME280;46198;51.464;-0.066;2023-03-25T09:08:33;100232.88;;;10.86;100.00
60355;BME280;46198;51.464;-0.066;2023-03-25T09:11:04;100232.84;;;10.74;100.00
60355;BME280;46198;51.464;-0.066;2023-03-25T09:13:32;100230.16;;;10.98;100.00
60355;BME280;46198;51.464;-0.066;2023-03-25T09:16:00;100250.81;;;10.87;100.00
60355;BME280;46198;51.464;-0.066;2023-03-25T09:18:28;100232.66;;;10.99;100.00
60355;BME280;46198;51.464;-0.066;2023-03-25T09:20:58;100250.09;;;11.03;100.00
60355;BME280;46198;51.464;-0.066;2023-03-25T09:23:26;100245.38;;;10.75;100.00
60355;BME280;46198;51.464;-0.066;2023-03-25T09:25:58;100248.69;;;10.89;100.00
60355;BME280;46198;51.464;-0.066;2023-03-25T09:28:28;100253.53;;;11.11;100.00
60355;BME280;46198;51.464;-0.066;2023-03-25T09:30:56;100258.13;;;10.98;100.00
60355;BME280;46198;51.464;-0.066;2023-03-25T09:33:25;100267.59;;;10.96;100.00
60355;BME280;46198;51.464;-0.066;2023-03-25T09:35:53;100257.53;;;11.20;100.00
60355;BME280;46198;51.464;-0.066;2023-03-25T09:38:22;100269.31;;;11.37;100.00
60355;BME280;46198;51.464;-0.066;2023-03-25T09:40:50;100262.34;;;11.41;100.00
60355;BME280;46198;51.464;-0.066;2023-03-25T09:43:25;100262.94;;;11.31;100.00
60355;BME280;46198;51.464;-0.066;2023-03-25T09:45:58;100271.34;;;11.30;100.00
60355;BME280;46198;51.464;-0.066;2023-03-25T09:48:30;100295.19;;;11.51;100.00
60355;BME280;46198;51.464;-0.066;2023-03-25T09:51:02;100281.81;;;11.62;100.00
60355;BME280;46198;51.464;-0.066;2023-03-25T09:53:35;100270.84;;;11.57;100.00
60355;BME280;46198;51.464;-0.066;2023-03-25T09:56:09;100269.97;;;11.56;100.00
60355;BME280;46198;51.464;-0.066;2023-03-25T09:58:41;100291.19;;;11.83;100.00
60355;BME280;46198;51.464;-0.066;2023-03-25T10:01:18;100293.09;;;11.82;100.00
60355;BME280;46198;51.464;-0.066;2023-03-25T10:04:02;100316.72;;;12.05;100.00
60355;BME280;46198;51.464;-0.066;2023-03-25T10:06:37;100300.53;;;11.98;100.00
60355;BME280;46198;51.464;-0.066;2023-03-25T10:09:19;100306.03;;;12.15;100.00
60355;BME280;46198;51.464;-0.066;2023-03-25T10:11:55;100317.75;;;12.16;100.00
60355;BME280;46198;51.464;-0.066;2023-03-25T10:14:26;100309.38;;;12.06;100.00
60355;BME280;46198;51.464;-0.066;2023-03-25T10:17:12;100322.00;;;12.12;100.00
60355;BME280;46198;51.464;-0.066;2023-03-25T10:19:51;100323.31;;;12.09;100.00
60355;BME280;46198;51.464;-0.066;2023-03-25T10:22:26;100320.22;;;12.17;100.00
60355;BME280;46198;51.464;-0.066;2023-03-25T10:24:57;100338.72;;;12.04;100.00
60355;BME280;46198;51.464;-0.066;2023-03-25T10:27:32;100339.81;;;12.03;100.00
60355;BME280;46198;51.464;-0.066;2023-03-25T10:30:06;100347.66;;;11.87;100.00
60355;BME280;46198;51.464;-0.066;2023-03-25T10:32:40;100345.16;;;11.97;100.00
60355;BME280;46198;51.464;-0.066;2023-03-25T10:35:11;100354.03;;;11.69;100.00
60355;BME280;46198;51.464;-0.066;2023-03-25T10:37:42;100351.44;;;11.86;100.00
60355;BME280;46198;51.464;-0.066;2023-03-25T10:40:19;100351.22;;;12.16;100.00
60355;BME280;46198;51.464;-0.066;2023-03-25T10:42:58;100352.44;;;12.09;100.00
60355;BME280;46198;51.464;-0.066;2023-03-25T10:45:31;100366.97;;;12.14;100.00
60355;BME280;46198;51.464;-0.066;2023-03-25T10:48:06;100358.19;;;12.24;100.00
60355;BME280;46198;51.464;-0.066;2023-03-25T10:50:39;100362.75;;;12.35;100.00
60355;BME280;46198;51.464;-0.066;2023-03-25T10:53:17;100371.41;;;12.32;100.00
60355;BME280;46198;51.464;-0.066;2023-03-25T10:55:48;100371.97;;;12.34;100.00
60355;BME280;46198;51.464;-0.066;2023-03-25T10:58:19;100382.31;;;12.32;100.00
60355;BME280;46198;51.464;-0.066;2023-03-25T11:00:47;100383.19;;;12.50;100.00
60355;BME280;46198;51.464;-0.066;2023-03-25T11:03:21;100390.66;;;12.14;100.00
60355;BME280;46198;51.464;-0.066;2023-03-25T11:05:51;100389.94;;;12.07;100.00
60355;BME280;46198;51.464;-0.066;2023-03-25T11:08:20;100404.16;;;12.09;100.00
60355;BME280;46198;51.464;-0.066;2023-03-25T11:10:51;100404.59;;;12.17;100.00
60355;BME280;46198;51.464;-0.066;2023-03-25T11:13:25;100405.66;;;12.16;100.00
60355;BME280;46198;51.464;-0.066;2023-03-25T11:15:56;100400.22;;;12.16;100.00
60355;BME280;46198;51.464;-0.066;2023-03-25T11:18:29;100421.09;;;12.39;100.00
60355;BME280;46198;51.464;-0.066;2023-03-25T11:21:00;100412.09;;;12.39;100.00
60355;BME280;46198;51.464;-0.066;2023-03-25T11:23:31;100420.00;;;12.52;100.00
60355;BME280;46198;51.464;-0.066;2023-03-25T11:26:03;100430.06;;;12.52;100.00
60355;BME280;46198;51.464;-0.066;2023-03-25T11:28:35;100431.44;;;12.83;100.00
60355;BME280;46198;51.464;-0.066;2023-03-25T11:31:08;100432.78;;;12.97;100.00
60355;BME280;46198;51.464;-0.066;2023-03-25T11:33:40;100431.88;;;12.92;100.00
60355;BME280;46198;51.464;-0.066;2023-03-25T11:36:36;100432.38;;;12.89;100.00
60355;BME280;46198;51.464;-0.066;2023-03-25T11:39:14;100435.59;;;12.85;100.00
60355;BME280;46198;51.464;-0.066;2023-03-25T11:41:44;100433.28;;;12.94;100.00
60355;BME280;46198;51.464;-0.066;2023-03-25T11:44:21;100444.94;;;12.90;100.00
60355;BME280;46198;51.464;-0.066;2023-03-25T11:46:53;100449.59;;;12.77;100.00
60355;BME280;46198;51.464;-0.066;2023-03-25T11:49:23;100440.50;;;12.72;100.00
60355;BME280;46198;51.464;-0.066;2023-03-25T11:51:56;100447.03;;;12.71;100.00
60355;BME280;46198;51.464;-0.066;2023-03-25T11:54:26;100439.63;;;12.83;100.00
60355;BME280;46198;51.464;-0.066;2023-03-25T11:56:55;100441.72;;;12.93;100.00
60355;BME280;46198;51.464;-0.066;2023-03-25T11:59:25;100435.34;;;12.58;100.00
60355;BME280;46198;51.464;-0.066;2023-03-25T12:02:00;100447.28;;;12.69;100.00
60355;BME280;46198;51.464;-0.066;2023-03-25T12:04:31;100449.88;;;12.76;100.00
60355;BME280;46198;51.464;-0.066;2023-03-25T12:07:00;100449.63;;;12.49;100.00
60355;BME280;46198;51.464;-0.066;2023-03-25T12:09:34;100436.28;;;12.64;100.00
60355;BME280;46198;51.464;-0.066;2023-03-25T12:12:22;100442.84;;;12.51;100.00
60355;BME280;46198;51.464;-0.066;2023-03-25T12:15:01;100438.34;;;12.57;100.00
60355;BME280;46198;51.464;-0.066;2023-03-25T12:17:45;100454.94;;;12.72;100.00
60355;BME280;46198;51.464;-0.066;2023-03-25T12:20:23;100455.44;;;12.69;100.00
60355;BME280;46198;51.464;-0.066;2023-03-25T12:22:59;100462.53;;;12.70;100.00
60355;BME280;46198;51.464;-0.066;2023-03-25T12:25:39;100450.88;;;12.86;100.00
60355;BME280;46198;51.464;-0.066;2023-03-25T12:28:30;100459.50;;;12.83;100.00
60355;BME280;46198;51.464;-0.066;2023-03-25T12:31:08;100447.50;;;13.13;100.00
60355;BME280;46198;51.464;-0.066;2023-03-25T12:33:52;100454.59;;;13.43;100.00
60355;BME280;46198;51.464;-0.066;2023-03-25T12:36:37;100445.69;;;13.86;100.00
60355;BME280;46198;51.464;-0.066;2023-03-25T12:39:18;100452.63;;;13.55;100.00
60355;BME280;46198;51.464;-0.066;2023-03-25T12:42:15;100435.44;;;13.93;100.00
60355;BME280;46198;51.464;-0.066;2023-03-25T12:45:02;100444.75;;;13.97;100.00
60355;BME280;46198;51.464;-0.066;2023-03-25T12:47:34;100443.09;;;13.74;100.00
60355;BME280;46198;51.464;-0.066;2023-03-25T12:52:55;100434.41;;;14.00;100.00
60355;BME280;46198;51.464;-0.066;2023-03-25T12:55:43;100437.06;;;14.55;100.00
60355;BME280;46198;51.464;-0.066;2023-03-25T12:58:34;100439.66;;;14.67;100.00
60355;BME280;46198;51.464;-0.066;2023-03-25T13:01:12;100441.72;;;15.09;100.00
60355;BME280;46198;51.464;-0.066;2023-03-25T13:03:52;100438.66;;;15.05;100.00
60355;BME280;46198;51.464;-0.066;2023-03-25T13:06:27;100444.47;;;15.14;100.00
60355;BME280;46198;51.464;-0.066;2023-03-25T13:09:02;100443.97;;;15.49;100.00
60355;BME280;46198;51.464;-0.066;2023-03-25T13:11:37;100453.91;;;15.61;100.00